KHUA

Redstone AAF Airport

Redstone Arsnl Huntsville, Alabama, USA
METAR KHUA 191858Z AUTO 23005KT 9SM FEW150 23/14 A3016 RMK AO2 SLP212 T02320144
Observed Flight Rules
Oct-19 @ 18:58 UTC (53 minutes ago) Visual Flight Rules
Wind Visibility Clouds
230° at 5 knots 9 miles
  • Few at 15,000' AGL
Temperatures Readings
Current 23°C / 73°F
Dewpoint 14°C / 57°F
Humidity 57%
Altimeter 30.16" Hg
Pressure 1021.2 hPa
Elevation 209
METAR KHUA 191858Z AUTO 23005KT 9SM FEW150 23/14 A3016 RMK AO2 SLP212 T02320144
Observed Flight Rules
Oct-19 @ 18:58 UTC
(53 minutes ago)
VFR
Wind Visibility
230° at 5 knots 9 miles
Clouds
  • Few at 15,000' AGL
Temperature Dewpoint
23°C / 73°F 14°C / 57°F
Humidity Altimeter Pressure
57% 30.16" Hg 1021.2 hPa